sensor_id;sensor_type;location;lat;lon;timestamp;P1;durP1;ratioP1;P2;durP2;ratioP2
21352;SDS011;10834;52.268;6.770;2023-12-29T00:01:02;8.97;;;1.87;;
21352;SDS011;10834;52.268;6.770;2023-12-29T00:03:46;6.43;;;2.03;;
21352;SDS011;10834;52.268;6.770;2023-12-29T00:06:30;4.97;;;1.80;;
21352;SDS011;10834;52.268;6.770;2023-12-29T00:09:14;11.13;;;2.13;;
21352;SDS011;10834;52.268;6.770;2023-12-29T00:11:58;8.63;;;2.13;;
21352;SDS011;10834;52.268;6.770;2023-12-29T00:14:42;13.30;;;2.60;;
21352;SDS011;10834;52.268;6.770;2023-12-29T00:17:27;6.90;;;2.37;;
21352;SDS011;10834;52.268;6.770;2023-12-29T00:20:11;12.27;;;2.20;;
21352;SDS011;10834;52.268;6.770;2023-12-29T00:22:55;11.60;;;2.53;;
21352;SDS011;10834;52.268;6.770;2023-12-29T00:25:42;4.80;;;1.77;;
21352;SDS011;10834;52.268;6.770;2023-12-29T00:28:26;6.50;;;1.80;;
21352;SDS011;10834;52.268;6.770;2023-12-29T00:31:14;8.07;;;2.47;;
21352;SDS011;10834;52.268;6.770;2023-12-29T00:34:01;11.47;;;1.80;;
21352;SDS011;10834;52.268;6.770;2023-12-29T00:36:46;5.80;;;1.80;;
21352;SDS011;10834;52.268;6.770;2023-12-29T00:39:30;12.20;;;2.53;;
21352;SDS011;10834;52.268;6.770;2023-12-29T00:42:15;7.17;;;2.03;;
21352;SDS011;10834;52.268;6.770;2023-12-29T00:44:59;8.90;;;1.40;;
21352;SDS011;10834;52.268;6.770;2023-12-29T00:47:43;9.97;;;1.80;;
21352;SDS011;10834;52.268;6.770;2023-12-29T00:50:28;7.67;;;1.67;;
21352;SDS011;10834;52.268;6.770;2023-12-29T00:53:12;7.57;;;2.23;;
21352;SDS011;10834;52.268;6.770;2023-12-29T00:55:56;8.23;;;2.47;;
21352;SDS011;10834;52.268;6.770;2023-12-29T00:58:40;3.57;;;1.47;;
21352;SDS011;10834;52.268;6.770;2023-12-29T01:01:24;11.77;;;2.10;;
21352;SDS011;10834;52.268;6.770;2023-12-29T01:04:09;7.30;;;1.83;;
21352;SDS011;10834;52.268;6.770;2023-12-29T01:06:52;9.20;;;1.97;;
21352;SDS011;10834;52.268;6.770;2023-12-29T01:09:38;12.00;;;2.03;;
21352;SDS011;10834;52.268;6.770;2023-12-29T01:12:24;6.40;;;1.50;;
21352;SDS011;10834;52.268;6.770;2023-12-29T01:15:09;10.10;;;1.53;;
21352;SDS011;10834;52.268;6.770;2023-12-29T01:17:53;11.13;;;1.83;;
21352;SDS011;10834;52.268;6.770;2023-12-29T01:20:37;7.77;;;1.87;;
21352;SDS011;10834;52.268;6.770;2023-12-29T01:23:23;4.37;;;1.60;;
21352;SDS011;10834;52.268;6.770;2023-12-29T01:26:07;9.07;;;3.53;;
21352;SDS011;10834;52.268;6.770;2023-12-29T01:28:51;7.10;;;2.40;;
21352;SDS011;10834;52.268;6.770;2023-12-29T01:31:35;9.80;;;1.87;;
21352;SDS011;10834;52.268;6.770;2023-12-29T01:34:19;6.57;;;3.30;;
21352;SDS011;10834;52.268;6.770;2023-12-29T01:37:03;5.03;;;2.07;;
21352;SDS011;10834;52.268;6.770;2023-12-29T01:39:47;12.93;;;2.07;;
21352;SDS011;10834;52.268;6.770;2023-12-29T01:42:31;6.97;;;2.10;;
21352;SDS011;10834;52.268;6.770;2023-12-29T01:45:20;5.87;;;1.43;;
21352;SDS011;10834;52.268;6.770;2023-12-29T01:48:06;13.33;;;3.60;;
21352;SDS011;10834;52.268;6.770;2023-12-29T01:50:52;8.83;;;1.50;;
21352;SDS011;10834;52.268;6.770;2023-12-29T01:53:37;10.63;;;2.40;;
21352;SDS011;10834;52.268;6.770;2023-12-29T01:56:22;4.27;;;1.90;;
21352;SDS011;10834;52.268;6.770;2023-12-29T01:59:06;6.50;;;1.70;;
21352;SDS011;10834;52.268;6.770;2023-12-29T02:01:51;3.63;;;1.40;;
21352;SDS011;10834;52.268;6.770;2023-12-29T02:04:36;6.87;;;1.40;;
21352;SDS011;10834;52.268;6.770;2023-12-29T02:07:22;3.17;;;1.77;;
21352;SDS011;10834;52.268;6.770;2023-12-29T02:10:06;3.57;;;1.43;;
21352;SDS011;10834;52.268;6.770;2023-12-29T02:12:51;9.10;;;1.93;;
21352;SDS011;10834;52.268;6.770;2023-12-29T02:15:40;9.60;;;3.20;;
21352;SDS011;10834;52.268;6.770;2023-12-29T02:18:25;7.50;;;1.90;;
21352;SDS011;10834;52.268;6.770;2023-12-29T02:21:12;6.07;;;1.90;;
21352;SDS011;10834;52.268;6.770;2023-12-29T02:23:56;6.20;;;1.70;;
21352;SDS011;10834;52.268;6.770;2023-12-29T02:26:41;11.13;;;1.50;;
21352;SDS011;10834;52.268;6.770;2023-12-29T02:29:29;7.10;;;2.10;;
21352;SDS011;10834;52.268;6.770;2023-12-29T02:32:16;7.97;;;1.87;;
21352;SDS011;10834;52.268;6.770;2023-12-29T02:35:02;5.40;;;1.90;;
21352;SDS011;10834;52.268;6.770;2023-12-29T02:37:48;12.57;;;2.17;;
21352;SDS011;10834;52.268;6.770;2023-12-29T02:40:33;5.80;;;1.80;;
21352;SDS011;10834;52.268;6.770;2023-12-29T02:43:17;5.27;;;1.43;;
21352;SDS011;10834;52.268;6.770;2023-12-29T02:46:01;6.70;;;1.50;;
21352;SDS011;10834;52.268;6.770;2023-12-29T02:48:46;4.70;;;1.27;;
21352;SDS011;10834;52.268;6.770;2023-12-29T02:51:30;8.30;;;1.83;;
21352;SDS011;10834;52.268;6.770;2023-12-29T02:54:14;7.63;;;1.73;;
21352;SDS011;10834;52.268;6.770;2023-12-29T02:56:58;9.67;;;1.87;;
21352;SDS011;10834;52.268;6.770;2023-12-29T02:59:43;5.97;;;1.57;;
21352;SDS011;10834;52.268;6.770;2023-12-29T03:02:27;8.93;;;1.87;;
21352;SDS011;10834;52.268;6.770;2023-12-29T03:05:12;7.93;;;1.63;;
21352;SDS011;10834;52.268;6.770;2023-12-29T03:07:56;8.27;;;1.57;;
21352;SDS011;10834;52.268;6.770;2023-12-29T03:10:41;6.27;;;1.40;;
21352;SDS011;10834;52.268;6.770;2023-12-29T03:13:25;6.00;;;1.50;;
21352;SDS011;10834;52.268;6.770;2023-12-29T03:16:09;5.60;;;1.40;;
21352;SDS011;10834;52.268;6.770;2023-12-29T03:18:53;9.17;;;1.73;;
21352;SDS011;10834;52.268;6.770;2023-12-29T03:21:37;11.53;;;2.83;;
21352;SDS011;10834;52.268;6.770;2023-12-29T03:24:21;4.10;;;1.53;;
21352;SDS011;10834;52.268;6.770;2023-12-29T03:27:05;2.60;;;1.60;;
21352;SDS011;10834;52.268;6.770;2023-12-29T03:29:50;4.00;;;1.43;;
21352;SDS011;10834;52.268;6.770;2023-12-29T03:32:35;5.23;;;1.57;;
21352;SDS011;10834;52.268;6.770;2023-12-29T03:35:19;9.10;;;1.97;;
21352;SDS011;10834;52.268;6.770;2023-12-29T03:38:04;6.57;;;1.80;;
21352;SDS011;10834;52.268;6.770;2023-12-29T03:40:48;5.77;;;1.70;;
21352;SDS011;10834;52.268;6.770;2023-12-29T03:43:31;5.90;;;2.03;;
21352;SDS011;10834;52.268;6.770;2023-12-29T03:46:16;6.97;;;1.57;;
21352;SDS011;10834;52.268;6.770;2023-12-29T03:49:01;4.00;;;2.27;;
21352;SDS011;10834;52.268;6.770;2023-12-29T03:51:46;4.67;;;1.50;;
21352;SDS011;10834;52.268;6.770;2023-12-29T03:54:30;7.20;;;1.80;;
21352;SDS011;10834;52.268;6.770;2023-12-29T03:57:15;5.03;;;2.37;;
21352;SDS011;10834;52.268;6.770;2023-12-29T03:59:59;7.53;;;2.53;;
21352;SDS011;10834;52.268;6.770;2023-12-29T04:02:43;16.07;;;2.37;;
21352;SDS011;10834;52.268;6.770;2023-12-29T04:05:27;7.33;;;2.77;;
21352;SDS011;10834;52.268;6.770;2023-12-29T04:08:11;8.37;;;2.33;;
21352;SDS011;10834;52.268;6.770;2023-12-29T04:10:56;8.13;;;2.33;;
21352;SDS011;10834;52.268;6.770;2023-12-29T04:13:40;7.87;;;2.80;;
21352;SDS011;10834;52.268;6.770;2023-12-29T04:16:24;9.57;;;2.87;;
21352;SDS011;10834;52.268;6.770;2023-12-29T04:19:08;11.63;;;1.93;;
21352;SDS011;10834;52.268;6.770;2023-12-29T04:21:52;5.13;;;2.20;;
21352;SDS011;10834;52.268;6.770;2023-12-29T04:24:37;8.50;;;2.47;;
21352;SDS011;10834;52.268;6.770;2023-12-29T04:27:21;7.30;;;2.37;;
21352;SDS011;10834;52.268;6.770;2023-12-29T04:30:06;12.47;;;2.43;;
21352;SDS011;10834;52.268;6.770;2023-12-29T04:32:50;12.63;;;3.13;;
21352;SDS011;10834;52.268;6.770;2023-12-29T04:35:34;12.53;;;2.30;;
21352;SDS011;10834;52.268;6.770;2023-12-29T04:38:18;8.80;;;2.43;;
21352;SDS011;10834;52.268;6.770;2023-12-29T04:41:03;12.60;;;2.77;;
21352;SDS011;10834;52.268;6.770;2023-12-29T04:43:48;11.27;;;2.60;;
21352;SDS011;10834;52.268;6.770;2023-12-29T04:46:32;9.83;;;2.93;;
21352;SDS011;10834;52.268;6.770;2023-12-29T04:49:16;8.47;;;2.53;;
21352;SDS011;10834;52.268;6.770;2023-12-29T04:52:00;9.37;;;2.87;;
21352;SDS011;10834;52.268;6.770;2023-12-29T04:54:45;8.07;;;2.23;;
21352;SDS011;10834;52.268;6.770;2023-12-29T04:57:29;14.10;;;2.20;;
21352;SDS011;10834;52.268;6.770;2023-12-29T05:00:13;14.57;;;3.10;;
21352;SDS011;10834;52.268;6.770;2023-12-29T05:02:58;6.70;;;2.37;;
21352;SDS011;10834;52.268;6.770;2023-12-29T05:05:43;8.27;;;3.03;;
21352;SDS011;10834;52.268;6.770;2023-12-29T05:08:27;8.00;;;1.93;;
21352;SDS011;10834;52.268;6.770;2023-12-29T05:11:11;14.37;;;3.07;;
21352;SDS011;10834;52.268;6.770;2023-12-29T05:13:55;8.37;;;2.23;;
21352;SDS011;10834;52.268;6.770;2023-12-29T05:16:41;7.80;;;1.80;;
21352;SDS011;10834;52.268;6.770;2023-12-29T05:19:25;10.17;;;2.50;;
21352;SDS011;10834;52.268;6.770;2023-12-29T05:22:09;11.40;;;2.00;;
21352;SDS011;10834;52.268;6.770;2023-12-29T05:24:55;8.73;;;2.50;;
21352;SDS011;10834;52.268;6.770;2023-12-29T05:27:43;5.80;;;2.90;;
21352;SDS011;10834;52.268;6.770;2023-12-29T05:30:27;5.80;;;1.93;;
21352;SDS011;10834;52.268;6.770;2023-12-29T05:33:14;10.17;;;3.20;;
21352;SDS011;10834;52.268;6.770;2023-12-29T05:35:59;11.37;;;2.90;;
21352;SDS011;10834;52.268;6.770;2023-12-29T05:38:51;12.60;;;3.03;;
21352;SDS011;10834;52.268;6.770;2023-12-29T05:41:35;11.17;;;2.63;;
21352;SDS011;10834;52.268;6.770;2023-12-29T05:44:19;10.80;;;2.60;;
21352;SDS011;10834;52.268;6.770;2023-12-29T05:47:04;12.37;;;4.23;;
21352;SDS011;10834;52.268;6.770;2023-12-29T05:49:48;13.73;;;3.30;;
21352;SDS011;10834;52.268;6.770;2023-12-29T05:52:33;15.20;;;2.77;;
21352;SDS011;10834;52.268;6.770;2023-12-29T05:55:18;10.13;;;2.57;;
21352;SDS011;10834;52.268;6.770;2023-12-29T05:58:03;12.50;;;2.60;;
21352;SDS011;10834;52.268;6.770;2023-12-29T06:00:47;14.00;;;2.97;;
21352;SDS011;10834;52.268;6.770;2023-12-29T06:03:31;12.63;;;2.70;;
21352;SDS011;10834;52.268;6.770;2023-12-29T06:06:15;13.00;;;4.20;;
21352;SDS011;10834;52.268;6.770;2023-12-29T06:08:59;11.80;;;2.40;;
21352;SDS011;10834;52.268;6.770;2023-12-29T06:11:44;12.33;;;2.37;;
21352;SDS011;10834;52.268;6.770;2023-12-29T06:14:28;9.50;;;2.97;;
21352;SDS011;10834;52.268;6.770;2023-12-29T06:17:12;10.13;;;2.43;;
21352;SDS011;10834;52.268;6.770;2023-12-29T06:19:56;12.27;;;2.50;;
21352;SDS011;10834;52.268;6.770;2023-12-29T06:22:40;15.93;;;3.00;;
21352;SDS011;10834;52.268;6.770;2023-12-29T06:25:24;12.63;;;2.60;;
21352;SDS011;10834;52.268;6.770;2023-12-29T06:28:08;15.40;;;3.50;;
21352;SDS011;10834;52.268;6.770;2023-12-29T06:30:53;18.03;;;3.07;;
21352;SDS011;10834;52.268;6.770;2023-12-29T06:33:41;13.70;;;3.30;;
21352;SDS011;10834;52.268;6.770;2023-12-29T06:36:26;12.17;;;2.53;;
21352;SDS011;10834;52.268;6.770;2023-12-29T06:39:10;12.27;;;2.73;;
21352;SDS011;10834;52.268;6.770;2023-12-29T06:41:54;9.53;;;3.30;;
21352;SDS011;10834;52.268;6.770;2023-12-29T06:44:38;15.20;;;3.17;;
21352;SDS011;10834;52.268;6.770;2023-12-29T06:47:22;13.67;;;3.37;;
21352;SDS011;10834;52.268;6.770;2023-12-29T06:50:06;11.87;;;2.70;;
21352;SDS011;10834;52.268;6.770;2023-12-29T06:52:55;13.53;;;3.10;;
21352;SDS011;10834;52.268;6.770;2023-12-29T06:55:40;13.70;;;3.00;;
21352;SDS011;10834;52.268;6.770;2023-12-29T06:58:24;18.37;;;2.60;;
21352;SDS011;10834;52.268;6.770;2023-12-29T07:01:08;11.43;;;2.80;;
21352;SDS011;10834;52.268;6.770;2023-12-29T07:03:52;11.30;;;2.90;;
21352;SDS011;10834;52.268;6.770;2023-12-29T07:06:36;11.90;;;2.47;;
21352;SDS011;10834;52.268;6.770;2023-12-29T07:09:20;16.43;;;2.77;;
21352;SDS011;10834;52.268;6.770;2023-12-29T07:12:04;14.03;;;2.33;;
21352;SDS011;10834;52.268;6.770;2023-12-29T07:14:49;12.57;;;3.03;;
21352;SDS011;10834;52.268;6.770;2023-12-29T07:17:33;16.40;;;2.90;;
21352;SDS011;10834;52.268;6.770;2023-12-29T07:20:17;13.13;;;2.40;;
21352;SDS011;10834;52.268;6.770;2023-12-29T07:23:01;13.87;;;2.33;;
21352;SDS011;10834;52.268;6.770;2023-12-29T07:25:46;10.23;;;2.70;;
21352;SDS011;10834;52.268;6.770;2023-12-29T07:28:31;10.07;;;2.23;;
21352;SDS011;10834;52.268;6.770;2023-12-29T07:31:16;15.03;;;2.23;;
21352;SDS011;10834;52.268;6.770;2023-12-29T07:34:00;7.80;;;2.07;;
21352;SDS011;10834;52.268;6.770;2023-12-29T07:36:44;12.10;;;3.00;;
21352;SDS011;10834;52.268;6.770;2023-12-29T07:39:28;11.80;;;3.60;;
21352;SDS011;10834;52.268;6.770;2023-12-29T07:42:12;16.53;;;3.63;;
21352;SDS011;10834;52.268;6.770;2023-12-29T07:44:57;15.97;;;3.73;;
21352;SDS011;10834;52.268;6.770;2023-12-29T07:47:41;10.73;;;2.43;;
21352;SDS011;10834;52.268;6.770;2023-12-29T07:50:25;15.20;;;3.60;;
21352;SDS011;10834;52.268;6.770;2023-12-29T07:53:09;12.83;;;2.57;;
21352;SDS011;10834;52.268;6.770;2023-12-29T07:55:53;13.83;;;2.10;;
21352;SDS011;10834;52.268;6.770;2023-12-29T07:58:38;10.80;;;3.23;;
21352;SDS011;10834;52.268;6.770;2023-12-29T08:01:22;13.30;;;2.70;;
21352;SDS011;10834;52.268;6.770;2023-12-29T08:04:07;8.40;;;1.70;;
21352;SDS011;10834;52.268;6.770;2023-12-29T08:06:51;7.67;;;1.63;;
21352;SDS011;10834;52.268;6.770;2023-12-29T08:09:35;10.37;;;2.03;;
21352;SDS011;10834;52.268;6.770;2023-12-29T08:12:19;7.17;;;3.10;;
21352;SDS011;10834;52.268;6.770;2023-12-29T08:15:04;7.07;;;1.63;;
21352;SDS011;10834;52.268;6.770;2023-12-29T08:17:49;5.07;;;1.30;;
21352;SDS011;10834;52.268;6.770;2023-12-29T08:20:33;8.23;;;1.70;;
21352;SDS011;10834;52.268;6.770;2023-12-29T08:23:17;10.20;;;1.60;;
21352;SDS011;10834;52.268;6.770;2023-12-29T08:26:02;12.10;;;1.97;;
21352;SDS011;10834;52.268;6.770;2023-12-29T08:28:46;5.87;;;1.90;;
21352;SDS011;10834;52.268;6.770;2023-12-29T08:31:30;3.97;;;1.60;;
21352;SDS011;10834;52.268;6.770;2023-12-29T08:34:14;5.27;;;1.30;;
21352;SDS011;10834;52.268;6.770;2023-12-29T08:36:58;6.07;;;1.50;;
21352;SDS011;10834;52.268;6.770;2023-12-29T08:39:43;6.57;;;1.80;;
21352;SDS011;10834;52.268;6.770;2023-12-29T08:42:27;6.07;;;1.33;;
21352;SDS011;10834;52.268;6.770;2023-12-29T08:45:12;6.43;;;1.60;;
21352;SDS011;10834;52.268;6.770;2023-12-29T08:47:56;8.57;;;1.90;;
21352;SDS011;10834;52.268;6.770;2023-12-29T08:50:40;6.17;;;2.20;;
21352;SDS011;10834;52.268;6.770;2023-12-29T08:53:26;8.60;;;1.93;;
21352;SDS011;10834;52.268;6.770;2023-12-29T08:56:10;8.30;;;1.53;;
21352;SDS011;10834;52.268;6.770;2023-12-29T08:58:54;4.53;;;1.80;;
21352;SDS011;10834;52.268;6.770;2023-12-29T09:01:39;7.87;;;1.80;;
21352;SDS011;10834;52.268;6.770;2023-12-29T09:04:23;5.97;;;1.70;;
21352;SDS011;10834;52.268;6.770;2023-12-29T09:07:08;11.33;;;1.87;;
21352;SDS011;10834;52.268;6.770;2023-12-29T09:09:52;4.50;;;1.50;;
21352;SDS011;10834;52.268;6.770;2023-12-29T09:12:36;9.83;;;2.43;;
21352;SDS011;10834;52.268;6.770;2023-12-29T09:15:21;10.37;;;2.83;;
21352;SDS011;10834;52.268;6.770;2023-12-29T09:18:05;3.93;;;1.77;;
21352;SDS011;10834;52.268;6.770;2023-12-29T09:20:49;4.57;;;1.50;;
21352;SDS011;10834;52.268;6.770;2023-12-29T09:23:34;5.63;;;1.80;;
21352;SDS011;10834;52.268;6.770;2023-12-29T09:26:21;4.87;;;1.60;;
21352;SDS011;10834;52.268;6.770;2023-12-29T09:29:05;7.10;;;2.23;;
21352;SDS011;10834;52.268;6.770;2023-12-29T09:31:49;8.33;;;1.97;;
21352;SDS011;10834;52.268;6.770;2023-12-29T09:34:33;6.83;;;2.20;;
21352;SDS011;10834;52.268;6.770;2023-12-29T09:37:17;6.43;;;2.00;;
21352;SDS011;10834;52.268;6.770;2023-12-29T09:40:01;4.97;;;1.87;;
21352;SDS011;10834;52.268;6.770;2023-12-29T09:42:46;9.30;;;1.70;;
21352;SDS011;10834;52.268;6.770;2023-12-29T09:45:31;9.13;;;2.27;;
21352;SDS011;10834;52.268;6.770;2023-12-29T09:48:18;5.30;;;2.83;;
21352;SDS011;10834;52.268;6.770;2023-12-29T09:51:04;1.97;;;1.83;;
21352;SDS011;10834;52.268;6.770;2023-12-29T09:53:50;5.57;;;1.83;;
21352;SDS011;10834;52.268;6.770;2023-12-29T09:56:35;6.47;;;1.40;;
21352;SDS011;10834;52.268;6.770;2023-12-29T09:59:20;4.10;;;1.53;;
21352;SDS011;10834;52.268;6.770;2023-12-29T10:02:06;4.53;;;1.10;;
21352;SDS011;10834;52.268;6.770;2023-12-29T10:05:02;2.50;;;1.20;;
21352;SDS011;10834;52.268;6.770;2023-12-29T10:07:47;6.57;;;1.73;;
21352;SDS011;10834;52.268;6.770;2023-12-29T10:10:33;4.30;;;1.67;;
21352;SDS011;10834;52.268;6.770;2023-12-29T10:13:19;5.23;;;1.43;;
21352;SDS011;10834;52.268;6.770;2023-12-29T10:22:30;6.27;;;2.20;;
21352;SDS011;10834;52.268;6.770;2023-12-29T10:25:25;3.23;;;1.43;;
21352;SDS011;10834;52.268;6.770;2023-12-29T10:28:10;5.23;;;1.73;;
21352;SDS011;10834;52.268;6.770;2023-12-29T10:30:54;2.10;;;1.20;;
21352;SDS011;10834;52.268;6.770;2023-12-29T10:33:39;4.43;;;1.37;;
21352;SDS011;10834;52.268;6.770;2023-12-29T10:36:23;6.57;;;1.33;;
21352;SDS011;10834;52.268;6.770;2023-12-29T10:39:07;6.97;;;1.43;;
21352;SDS011;10834;52.268;6.770;2023-12-29T10:42:04;3.50;;;1.23;;
21352;SDS011;10834;52.268;6.770;2023-12-29T10:44:53;4.80;;;1.60;;
21352;SDS011;10834;52.268;6.770;2023-12-29T10:47:52;3.97;;;1.57;;
21352;SDS011;10834;52.268;6.770;2023-12-29T10:50:42;3.40;;;1.23;;
21352;SDS011;10834;52.268;6.770;2023-12-29T10:53:28;7.03;;;1.20;;
21352;SDS011;10834;52.268;6.770;2023-12-29T10:56:16;4.73;;;1.57;;
21352;SDS011;10834;52.268;6.770;2023-12-29T10:59:04;3.80;;;1.30;;
21352;SDS011;10834;52.268;6.770;2023-12-29T11:01:49;2.60;;;1.43;;
21352;SDS011;10834;52.268;6.770;2023-12-29T11:04:35;4.00;;;1.57;;
21352;SDS011;10834;52.268;6.770;2023-12-29T11:07:37;5.63;;;1.40;;
21352;SDS011;10834;52.268;6.770;2023-12-29T11:10:22;2.83;;;1.53;;
21352;SDS011;10834;52.268;6.770;2023-12-29T11:13:06;3.30;;;1.60;;
21352;SDS011;10834;52.268;6.770;2023-12-29T11:15:51;3.23;;;1.17;;
21352;SDS011;10834;52.268;6.770;2023-12-29T11:18:36;3.43;;;1.73;;
21352;SDS011;10834;52.268;6.770;2023-12-29T11:21:22;3.43;;;1.40;;
21352;SDS011;10834;52.268;6.770;2023-12-29T11:24:09;3.33;;;1.20;;
21352;SDS011;10834;52.268;6.770;2023-12-29T11:26:53;3.67;;;1.23;;
21352;SDS011;10834;52.268;6.770;2023-12-29T11:29:38;1.43;;;0.87;;
21352;SDS011;10834;52.268;6.770;2023-12-29T11:32:34;3.00;;;1.33;;
21352;SDS011;10834;52.268;6.770;2023-12-29T11:35:40;3.23;;;1.30;;
21352;SDS011;10834;52.268;6.770;2023-12-29T11:39:34;3.43;;;1.37;;
21352;SDS011;10834;52.268;6.770;2023-12-29T11:42:06;2.07;;;1.37;;
21352;SDS011;10834;52.268;6.770;2023-12-29T11:51:42;6.17;;;1.23;;
21352;SDS011;10834;52.268;6.770;2023-12-29T11:54:28;2.47;;;1.60;;
21352;SDS011;10834;52.268;6.770;2023-12-29T11:57:12;1.93;;;1.20;;
21352;SDS011;10834;52.268;6.770;2023-12-29T12:00:14;1.63;;;1.07;;
21352;SDS011;10834;52.268;6.770;2023-12-29T12:03:00;2.03;;;1.53;;
21352;SDS011;10834;52.268;6.770;2023-12-29T12:05:48;5.30;;;1.80;;
21352;SDS011;10834;52.268;6.770;2023-12-29T12:08:36;4.60;;;1.40;;
21352;SDS011;10834;52.268;6.770;2023-12-29T12:17:34;4.43;;;1.20;;
21352;SDS011;10834;52.268;6.770;2023-12-29T12:20:20;1.57;;;1.10;;
21352;SDS011;10834;52.268;6.770;2023-12-29T12:23:07;4.97;;;1.47;;
21352;SDS011;10834;52.268;6.770;2023-12-29T12:25:57;5.30;;;1.10;;
21352;SDS011;10834;52.268;6.770;2023-12-29T12:28:43;3.67;;;1.50;;
21352;SDS011;10834;52.268;6.770;2023-12-29T12:31:29;4.00;;;1.40;;
21352;SDS011;10834;52.268;6.770;2023-12-29T12:34:13;6.90;;;1.60;;
21352;SDS011;10834;52.268;6.770;2023-12-29T12:36:57;7.57;;;1.23;;
21352;SDS011;10834;52.268;6.770;2023-12-29T12:39:44;3.67;;;1.40;;
21352;SDS011;10834;52.268;6.770;2023-12-29T12:42:29;8.43;;;2.47;;
21352;SDS011;10834;52.268;6.770;2023-12-29T12:45:13;4.20;;;1.30;;
21352;SDS011;10834;52.268;6.770;2023-12-29T12:48:13;4.33;;;1.70;;
21352;SDS011;10834;52.268;6.770;2023-12-29T12:51:03;5.10;;;1.40;;
21352;SDS011;10834;52.268;6.770;2023-12-29T12:53:47;3.53;;;1.40;;
21352;SDS011;10834;52.268;6.770;2023-12-29T12:56:32;7.50;;;1.97;;
21352;SDS011;10834;52.268;6.770;2023-12-29T12:59:17;3.73;;;1.20;;
21352;SDS011;10834;52.268;6.770;2023-12-29T13:02:02;4.50;;;1.20;;
21352;SDS011;10834;52.268;6.770;2023-12-29T13:04:48;5.97;;;1.20;;
21352;SDS011;10834;52.268;6.770;2023-12-29T13:07:34;3.00;;;1.10;;
21352;SDS011;10834;52.268;6.770;2023-12-29T13:10:19;6.93;;;1.30;;
21352;SDS011;10834;52.268;6.770;2023-12-29T13:13:03;6.80;;;1.20;;
21352;SDS011;10834;52.268;6.770;2023-12-29T13:15:48;4.10;;;1.10;;
21352;SDS011;10834;52.268;6.770;2023-12-29T13:18:33;4.60;;;1.10;;
21352;SDS011;10834;52.268;6.770;2023-12-29T13:21:18;3.53;;;1.20;;
21352;SDS011;10834;52.268;6.770;2023-12-29T13:24:05;4.57;;;1.20;;
21352;SDS011;10834;52.268;6.770;2023-12-29T13:26:52;5.30;;;1.30;;
21352;SDS011;10834;52.268;6.770;2023-12-29T13:29:41;5.70;;;1.40;;
21352;SDS011;10834;52.268;6.770;2023-12-29T13:32:26;2.80;;;1.20;;
21352;SDS011;10834;52.268;6.770;2023-12-29T13:35:23;4.10;;;1.50;;
21352;SDS011;10834;52.268;6.770;2023-12-29T13:38:28;5.87;;;1.23;;
21352;SDS011;10834;52.268;6.770;2023-12-29T13:41:21;8.77;;;2.83;;
21352;SDS011;10834;52.268;6.770;2023-12-29T13:44:07;5.07;;;1.57;;
21352;SDS011;10834;52.268;6.770;2023-12-29T13:46:52;6.30;;;1.50;;
21352;SDS011;10834;52.268;6.770;2023-12-29T13:49:38;8.20;;;1.50;;
21352;SDS011;10834;52.268;6.770;2023-12-29T13:52:22;8.73;;;1.70;;
21352;SDS011;10834;52.268;6.770;2023-12-29T13:55:07;7.80;;;1.13;;
21352;SDS011;10834;52.268;6.770;2023-12-29T13:57:51;5.47;;;1.43;;
21352;SDS011;10834;52.268;6.770;2023-12-29T14:00:37;6.63;;;1.00;;
21352;SDS011;10834;52.268;6.770;2023-12-29T14:03:27;7.77;;;1.50;;
21352;SDS011;10834;52.268;6.770;2023-12-29T14:06:22;9.60;;;1.57;;
21352;SDS011;10834;52.268;6.770;2023-12-29T14:09:15;7.73;;;1.80;;
21352;SDS011;10834;52.268;6.770;2023-12-29T14:12:01;6.97;;;1.37;;
21352;SDS011;10834;52.268;6.770;2023-12-29T14:14:45;8.40;;;1.60;;
21352;SDS011;10834;52.268;6.770;2023-12-29T14:17:29;5.90;;;1.87;;
21352;SDS011;10834;52.268;6.770;2023-12-29T14:20:32;10.57;;;1.63;;
21352;SDS011;10834;52.268;6.770;2023-12-29T14:23:18;6.23;;;2.43;;
21352;SDS011;10834;52.268;6.770;2023-12-29T14:26:03;6.40;;;1.70;;
21352;SDS011;10834;52.268;6.770;2023-12-29T14:28:58;5.30;;;1.60;;
21352;SDS011;10834;52.268;6.770;2023-12-29T14:31:44;8.77;;;1.40;;
21352;SDS011;10834;52.268;6.770;2023-12-29T14:34:29;7.40;;;1.63;;
21352;SDS011;10834;52.268;6.770;2023-12-29T14:37:13;6.13;;;1.67;;
21352;SDS011;10834;52.268;6.770;2023-12-29T14:39:57;7.20;;;2.00;;
21352;SDS011;10834;52.268;6.770;2023-12-29T14:42:41;8.63;;;1.53;;
21352;SDS011;10834;52.268;6.770;2023-12-29T14:45:25;6.33;;;1.50;;
21352;SDS011;10834;52.268;6.770;2023-12-29T14:48:12;5.63;;;2.23;;
21352;SDS011;10834;52.268;6.770;2023-12-29T14:50:57;9.13;;;2.93;;
21352;SDS011;10834;52.268;6.770;2023-12-29T14:53:43;6.40;;;2.37;;
21352;SDS011;10834;52.268;6.770;2023-12-29T14:56:31;13.77;;;3.10;;
21352;SDS011;10834;52.268;6.770;2023-12-29T14:59:16;8.93;;;2.40;;
21352;SDS011;10834;52.268;6.770;2023-12-29T15:02:00;5.97;;;2.50;;
21352;SDS011;10834;52.268;6.770;2023-12-29T15:04:45;12.43;;;1.93;;
21352;SDS011;10834;52.268;6.770;2023-12-29T15:07:29;14.27;;;1.77;;
21352;SDS011;10834;52.268;6.770;2023-12-29T15:10:14;9.20;;;1.70;;
21352;SDS011;10834;52.268;6.770;2023-12-29T15:12:58;6.60;;;1.57;;
21352;SDS011;10834;52.268;6.770;2023-12-29T15:15:42;9.13;;;3.20;;
21352;SDS011;10834;52.268;6.770;2023-12-29T15:18:27;9.50;;;2.00;;
21352;SDS011;10834;52.268;6.770;2023-12-29T15:21:13;9.93;;;2.27;;
21352;SDS011;10834;52.268;6.770;2023-12-29T15:23:57;9.87;;;1.87;;
21352;SDS011;10834;52.268;6.770;2023-12-29T15:26:41;12.00;;;2.33;;
21352;SDS011;10834;52.268;6.770;2023-12-29T15:29:25;7.27;;;1.40;;
21352;SDS011;10834;52.268;6.770;2023-12-29T15:32:13;7.00;;;1.70;;
21352;SDS011;10834;52.268;6.770;2023-12-29T15:34:57;10.00;;;2.30;;
21352;SDS011;10834;52.268;6.770;2023-12-29T15:37:41;11.83;;;2.23;;
21352;SDS011;10834;52.268;6.770;2023-12-29T15:40:25;4.87;;;1.83;;
21352;SDS011;10834;52.268;6.770;2023-12-29T15:43:09;7.70;;;1.73;;
21352;SDS011;10834;52.268;6.770;2023-12-29T15:45:53;7.60;;;2.13;;
21352;SDS011;10834;52.268;6.770;2023-12-29T15:48:37;12.80;;;2.63;;
21352;SDS011;10834;52.268;6.770;2023-12-29T15:51:22;18.30;;;2.90;;
21352;SDS011;10834;52.268;6.770;2023-12-29T15:54:06;9.03;;;2.37;;
21352;SDS011;10834;52.268;6.770;2023-12-29T15:56:50;14.40;;;4.50;;
21352;SDS011;10834;52.268;6.770;2023-12-29T15:59:35;13.00;;;3.83;;
21352;SDS011;10834;52.268;6.770;2023-12-29T16:02:20;18.97;;;4.73;;
21352;SDS011;10834;52.268;6.770;2023-12-29T16:05:04;9.07;;;4.20;;
21352;SDS011;10834;52.268;6.770;2023-12-29T16:07:48;9.13;;;3.80;;
21352;SDS011;10834;52.268;6.770;2023-12-29T16:10:32;19.50;;;11.80;;
21352;SDS011;10834;52.268;6.770;2023-12-29T16:13:16;10.60;;;3.77;;
21352;SDS011;10834;52.268;6.770;2023-12-29T16:16:03;12.00;;;6.00;;
21352;SDS011;10834;52.268;6.770;2023-12-29T16:18:47;7.37;;;3.00;;
21352;SDS011;10834;52.268;6.770;2023-12-29T16:21:35;9.40;;;4.37;;
21352;SDS011;10834;52.268;6.770;2023-12-29T16:24:20;6.30;;;2.97;;
21352;SDS011;10834;52.268;6.770;2023-12-29T16:27:05;6.63;;;3.50;;
21352;SDS011;10834;52.268;6.770;2023-12-29T16:29:49;6.85;;;3.03;;
21352;SDS011;10834;52.268;6.770;2023-12-29T16:32:34;6.60;;;3.97;;
21352;SDS011;10834;52.268;6.770;2023-12-29T16:35:18;9.97;;;4.63;;
21352;SDS011;10834;52.268;6.770;2023-12-29T16:38:04;18.30;;;11.23;;
21352;SDS011;10834;52.268;6.770;2023-12-29T16:40:49;8.73;;;4.50;;
21352;SDS011;10834;52.268;6.770;2023-12-29T16:43:33;9.53;;;5.20;;
21352;SDS011;10834;52.268;6.770;2023-12-29T16:46:17;8.07;;;4.83;;
21352;SDS011;10834;52.268;6.770;2023-12-29T16:49:01;24.93;;;14.80;;
21352;SDS011;10834;52.268;6.770;2023-12-29T16:51:46;13.80;;;9.63;;